sensor_id;sensor_type;location;lat;lon;timestamp;P1;durP1;ratioP1;P2;durP2;ratioP2
25213;SDS011;13160;51.834;4.706;2023-08-06T00:01:07;7.93;;;3.92;;
25213;SDS011;13160;51.834;4.706;2023-08-06T00:03:37;9.60;;;4.85;;
25213;SDS011;13160;51.834;4.706;2023-08-06T00:06:10;7.78;;;4.55;;
25213;SDS011;13160;51.834;4.706;2023-08-06T00:08:38;7.38;;;4.20;;
25213;SDS011;13160;51.834;4.706;2023-08-06T00:11:20;9.70;;;4.30;;
25213;SDS011;13160;51.834;4.706;2023-08-06T00:14:06;8.07;;;4.00;;
25213;SDS011;13160;51.834;4.706;2023-08-06T00:16:35;9.85;;;4.00;;
25213;SDS011;13160;51.834;4.706;2023-08-06T00:19:03;6.93;;;4.32;;
25213;SDS011;13160;51.834;4.706;2023-08-06T00:21:47;8.68;;;4.72;;
25213;SDS011;13160;51.834;4.706;2023-08-06T00:24:16;9.60;;;4.65;;
25213;SDS011;13160;51.834;4.706;2023-08-06T00:26:58;7.88;;;4.88;;
25213;SDS011;13160;51.834;4.706;2023-08-06T00:29:27;12.07;;;5.03;;
25213;SDS011;13160;51.834;4.706;2023-08-06T00:32:05;6.50;;;4.47;;
25213;SDS011;13160;51.834;4.706;2023-08-06T00:34:34;7.47;;;4.57;;
25213;SDS011;13160;51.834;4.706;2023-08-06T00:37:04;6.63;;;4.20;;
25213;SDS011;13160;51.834;4.706;2023-08-06T00:39:47;8.45;;;5.22;;
25213;SDS011;13160;51.834;4.706;2023-08-06T00:42:32;8.35;;;5.38;;
25213;SDS011;13160;51.834;4.706;2023-08-06T00:45:01;7.18;;;4.60;;
25213;SDS011;13160;51.834;4.706;2023-08-06T00:47:29;9.30;;;5.07;;
25213;SDS011;13160;51.834;4.706;2023-08-06T00:49:58;10.82;;;5.35;;
25213;SDS011;13160;51.834;4.706;2023-08-06T00:52:28;7.60;;;4.80;;
25213;SDS011;13160;51.834;4.706;2023-08-06T00:54:56;10.98;;;5.15;;
25213;SDS011;13160;51.834;4.706;2023-08-06T00:57:39;8.70;;;5.30;;
25213;SDS011;13160;51.834;4.706;2023-08-06T01:00:22;8.30;;;4.88;;
25213;SDS011;13160;51.834;4.706;2023-08-06T01:02:57;10.00;;;5.38;;
25213;SDS011;13160;51.834;4.706;2023-08-06T01:05:26;7.80;;;5.47;;
25213;SDS011;13160;51.834;4.706;2023-08-06T01:08:00;8.02;;;5.05;;
25213;SDS011;13160;51.834;4.706;2023-08-06T01:10:45;7.55;;;5.05;;
25213;SDS011;13160;51.834;4.706;2023-08-06T01:13:41;8.65;;;5.53;;
25213;SDS011;13160;51.834;4.706;2023-08-06T01:16:14;8.30;;;5.80;;
25213;SDS011;13160;51.834;4.706;2023-08-06T01:18:47;9.50;;;6.13;;
25213;SDS011;13160;51.834;4.706;2023-08-06T01:21:31;10.52;;;6.18;;
25213;SDS011;13160;51.834;4.706;2023-08-06T01:23:59;7.95;;;5.80;;
25213;SDS011;13160;51.834;4.706;2023-08-06T01:26:30;11.35;;;6.05;;
25213;SDS011;13160;51.834;4.706;2023-08-06T01:29:06;10.77;;;5.97;;
25213;SDS011;13160;51.834;4.706;2023-08-06T01:31:41;7.32;;;5.43;;
25213;SDS011;13160;51.834;4.706;2023-08-06T01:34:28;10.10;;;6.00;;
25213;SDS011;13160;51.834;4.706;2023-08-06T01:37:00;12.32;;;5.78;;
25213;SDS011;13160;51.834;4.706;2023-08-06T01:39:31;8.55;;;5.97;;
25213;SDS011;13160;51.834;4.706;2023-08-06T01:42:01;12.60;;;6.70;;
25213;SDS011;13160;51.834;4.706;2023-08-06T01:44:30;16.08;;;7.15;;
25213;SDS011;13160;51.834;4.706;2023-08-06T01:46:59;12.70;;;8.07;;
25213;SDS011;13160;51.834;4.706;2023-08-06T01:49:27;12.57;;;7.95;;
25213;SDS011;13160;51.834;4.706;2023-08-06T01:51:56;12.40;;;8.32;;
25213;SDS011;13160;51.834;4.706;2023-08-06T01:54:26;12.20;;;8.90;;
25213;SDS011;13160;51.834;4.706;2023-08-06T01:56:55;14.10;;;8.88;;
25213;SDS011;13160;51.834;4.706;2023-08-06T01:59:25;14.75;;;9.65;;
25213;SDS011;13160;51.834;4.706;2023-08-06T02:01:53;12.45;;;9.05;;
25213;SDS011;13160;51.834;4.706;2023-08-06T02:04:22;13.15;;;9.45;;
25213;SDS011;13160;51.834;4.706;2023-08-06T02:06:50;12.50;;;9.63;;
25213;SDS011;13160;51.834;4.706;2023-08-06T02:09:20;14.73;;;9.05;;
25213;SDS011;13160;51.834;4.706;2023-08-06T02:11:50;15.32;;;10.45;;
25213;SDS011;13160;51.834;4.706;2023-08-06T02:14:19;12.65;;;9.65;;
25213;SDS011;13160;51.834;4.706;2023-08-06T02:16:48;18.48;;;10.77;;
25213;SDS011;13160;51.834;4.706;2023-08-06T02:19:17;17.60;;;9.68;;
25213;SDS011;13160;51.834;4.706;2023-08-06T02:21:45;13.70;;;10.07;;
25213;SDS011;13160;51.834;4.706;2023-08-06T02:24:13;13.00;;;10.02;;
25213;SDS011;13160;51.834;4.706;2023-08-06T02:26:42;16.05;;;10.88;;
25213;SDS011;13160;51.834;4.706;2023-08-06T02:29:12;17.63;;;10.73;;
25213;SDS011;13160;51.834;4.706;2023-08-06T02:31:40;15.48;;;10.35;;
25213;SDS011;13160;51.834;4.706;2023-08-06T02:34:08;16.17;;;11.38;;
25213;SDS011;13160;51.834;4.706;2023-08-06T02:36:40;15.73;;;11.05;;
25213;SDS011;13160;51.834;4.706;2023-08-06T02:39:08;16.10;;;11.07;;
25213;SDS011;13160;51.834;4.706;2023-08-06T02:41:39;14.73;;;10.18;;
25213;SDS011;13160;51.834;4.706;2023-08-06T02:44:07;14.50;;;10.68;;
25213;SDS011;13160;51.834;4.706;2023-08-06T02:46:37;15.35;;;11.63;;
25213;SDS011;13160;51.834;4.706;2023-08-06T02:49:06;15.10;;;9.85;;
25213;SDS011;13160;51.834;4.706;2023-08-06T02:51:36;13.57;;;10.10;;
25213;SDS011;13160;51.834;4.706;2023-08-06T02:54:04;14.73;;;10.65;;
25213;SDS011;13160;51.834;4.706;2023-08-06T02:56:32;12.65;;;9.60;;
25213;SDS011;13160;51.834;4.706;2023-08-06T02:59:02;15.50;;;10.07;;
25213;SDS011;13160;51.834;4.706;2023-08-06T03:01:31;16.63;;;11.88;;
25213;SDS011;13160;51.834;4.706;2023-08-06T03:04:03;16.05;;;10.48;;
25213;SDS011;13160;51.834;4.706;2023-08-06T03:06:32;14.73;;;11.38;;
25213;SDS011;13160;51.834;4.706;2023-08-06T03:09:01;17.02;;;11.45;;
25213;SDS011;13160;51.834;4.706;2023-08-06T03:11:29;17.13;;;13.00;;
25213;SDS011;13160;51.834;4.706;2023-08-06T03:13:58;17.88;;;11.40;;
25213;SDS011;13160;51.834;4.706;2023-08-06T03:16:26;14.43;;;11.18;;
25213;SDS011;13160;51.834;4.706;2023-08-06T03:18:55;16.45;;;12.30;;
25213;SDS011;13160;51.834;4.706;2023-08-06T03:21:25;16.02;;;11.55;;
25213;SDS011;13160;51.834;4.706;2023-08-06T03:23:56;19.08;;;12.45;;
25213;SDS011;13160;51.834;4.706;2023-08-06T03:26:27;16.42;;;12.52;;
25213;SDS011;13160;51.834;4.706;2023-08-06T03:28:56;18.30;;;12.88;;
25213;SDS011;13160;51.834;4.706;2023-08-06T03:31:24;22.33;;;13.57;;
25213;SDS011;13160;51.834;4.706;2023-08-06T03:33:52;17.80;;;12.88;;
25213;SDS011;13160;51.834;4.706;2023-08-06T03:36:21;18.17;;;13.75;;
25213;SDS011;13160;51.834;4.706;2023-08-06T03:38:50;18.27;;;13.23;;
25213;SDS011;13160;51.834;4.706;2023-08-06T03:41:19;20.42;;;12.57;;
25213;SDS011;13160;51.834;4.706;2023-08-06T03:43:47;20.67;;;14.00;;
25213;SDS011;13160;51.834;4.706;2023-08-06T03:46:16;22.08;;;13.73;;
25213;SDS011;13160;51.834;4.706;2023-08-06T03:48:44;19.02;;;13.05;;
25213;SDS011;13160;51.834;4.706;2023-08-06T03:51:13;18.52;;;13.52;;
25213;SDS011;13160;51.834;4.706;2023-08-06T03:53:41;20.45;;;13.38;;
25213;SDS011;13160;51.834;4.706;2023-08-06T03:56:11;19.33;;;14.05;;
25213;SDS011;13160;51.834;4.706;2023-08-06T03:58:40;19.90;;;14.15;;
25213;SDS011;13160;51.834;4.706;2023-08-06T04:01:12;17.25;;;13.50;;
25213;SDS011;13160;51.834;4.706;2023-08-06T04:03:40;17.30;;;13.00;;
25213;SDS011;13160;51.834;4.706;2023-08-06T04:06:12;21.40;;;13.52;;
25213;SDS011;13160;51.834;4.706;2023-08-06T04:08:40;17.10;;;11.35;;
25213;SDS011;13160;51.834;4.706;2023-08-06T04:11:08;16.20;;;10.23;;
25213;SDS011;13160;51.834;4.706;2023-08-06T04:13:42;11.73;;;8.48;;
25213;SDS011;13160;51.834;4.706;2023-08-06T04:16:11;9.02;;;5.88;;
25213;SDS011;13160;51.834;4.706;2023-08-06T04:18:41;7.57;;;5.15;;
25213;SDS011;13160;51.834;4.706;2023-08-06T04:21:09;5.95;;;3.67;;
25213;SDS011;13160;51.834;4.706;2023-08-06T04:23:38;7.75;;;4.50;;
25213;SDS011;13160;51.834;4.706;2023-08-06T04:26:06;6.47;;;4.55;;
25213;SDS011;13160;51.834;4.706;2023-08-06T04:28:36;7.60;;;4.95;;
25213;SDS011;13160;51.834;4.706;2023-08-06T04:31:05;6.40;;;3.63;;
25213;SDS011;13160;51.834;4.706;2023-08-06T04:33:33;6.82;;;3.85;;
25213;SDS011;13160;51.834;4.706;2023-08-06T04:36:02;6.65;;;3.55;;
25213;SDS011;13160;51.834;4.706;2023-08-06T04:38:31;8.90;;;4.28;;
25213;SDS011;13160;51.834;4.706;2023-08-06T04:41:00;8.30;;;4.50;;
25213;SDS011;13160;51.834;4.706;2023-08-06T04:43:30;8.50;;;4.28;;
25213;SDS011;13160;51.834;4.706;2023-08-06T04:46:00;11.95;;;4.25;;
25213;SDS011;13160;51.834;4.706;2023-08-06T04:48:28;8.27;;;4.13;;
25213;SDS011;13160;51.834;4.706;2023-08-06T04:50:57;9.45;;;4.75;;
25213;SDS011;13160;51.834;4.706;2023-08-06T04:53:25;12.65;;;4.63;;
25213;SDS011;13160;51.834;4.706;2023-08-06T04:55:54;9.68;;;4.35;;
25213;SDS011;13160;51.834;4.706;2023-08-06T04:58:22;8.95;;;4.47;;
25213;SDS011;13160;51.834;4.706;2023-08-06T05:00:50;10.85;;;5.20;;
25213;SDS011;13160;51.834;4.706;2023-08-06T05:03:22;9.57;;;5.05;;
25213;SDS011;13160;51.834;4.706;2023-08-06T05:05:51;7.65;;;4.55;;
25213;SDS011;13160;51.834;4.706;2023-08-06T05:08:19;10.75;;;4.82;;
25213;SDS011;13160;51.834;4.706;2023-08-06T05:10:48;12.15;;;5.25;;
25213;SDS011;13160;51.834;4.706;2023-08-06T05:13:17;9.02;;;4.90;;
25213;SDS011;13160;51.834;4.706;2023-08-06T05:15:45;11.55;;;4.80;;
25213;SDS011;13160;51.834;4.706;2023-08-06T05:18:14;9.38;;;4.00;;
25213;SDS011;13160;51.834;4.706;2023-08-06T05:20:44;10.95;;;4.85;;
25213;SDS011;13160;51.834;4.706;2023-08-06T05:23:12;7.97;;;4.72;;
25213;SDS011;13160;51.834;4.706;2023-08-06T05:25:41;10.98;;;4.90;;
25213;SDS011;13160;51.834;4.706;2023-08-06T05:28:10;8.45;;;4.88;;
25213;SDS011;13160;51.834;4.706;2023-08-06T05:30:39;11.65;;;5.10;;
25213;SDS011;13160;51.834;4.706;2023-08-06T05:33:07;9.93;;;4.90;;
25213;SDS011;13160;51.834;4.706;2023-08-06T05:35:36;11.68;;;4.97;;
25213;SDS011;13160;51.834;4.706;2023-08-06T05:38:06;10.63;;;4.82;;
25213;SDS011;13160;51.834;4.706;2023-08-06T05:40:36;14.55;;;5.13;;
25213;SDS011;13160;51.834;4.706;2023-08-06T05:43:05;10.20;;;5.20;;
25213;SDS011;13160;51.834;4.706;2023-08-06T05:45:33;12.38;;;6.03;;
25213;SDS011;13160;51.834;4.706;2023-08-06T05:48:01;9.05;;;5.47;;
25213;SDS011;13160;51.834;4.706;2023-08-06T05:50:30;10.13;;;5.68;;
25213;SDS011;13160;51.834;4.706;2023-08-06T05:52:59;13.57;;;6.45;;
25213;SDS011;13160;51.834;4.706;2023-08-06T05:55:29;13.45;;;6.25;;
25213;SDS011;13160;51.834;4.706;2023-08-06T05:57:58;13.52;;;5.88;;
25213;SDS011;13160;51.834;4.706;2023-08-06T06:00:27;10.40;;;6.13;;
25213;SDS011;13160;51.834;4.706;2023-08-06T06:02:55;14.23;;;6.50;;
25213;SDS011;13160;51.834;4.706;2023-08-06T06:05:24;10.32;;;6.07;;
25213;SDS011;13160;51.834;4.706;2023-08-06T06:07:52;14.30;;;6.82;;
25213;SDS011;13160;51.834;4.706;2023-08-06T06:10:22;14.80;;;5.72;;
25213;SDS011;13160;51.834;4.706;2023-08-06T06:12:52;10.82;;;5.65;;
25213;SDS011;13160;51.834;4.706;2023-08-06T06:15:20;9.15;;;5.40;;
25213;SDS011;13160;51.834;4.706;2023-08-06T06:17:49;12.85;;;5.20;;
25213;SDS011;13160;51.834;4.706;2023-08-06T06:20:17;11.50;;;5.07;;
25213;SDS011;13160;51.834;4.706;2023-08-06T06:22:45;9.98;;;3.97;;
25213;SDS011;13160;51.834;4.706;2023-08-06T06:25:14;9.32;;;4.15;;
25213;SDS011;13160;51.834;4.706;2023-08-06T06:27:42;10.27;;;4.13;;
25213;SDS011;13160;51.834;4.706;2023-08-06T06:30:14;13.50;;;4.03;;
25213;SDS011;13160;51.834;4.706;2023-08-06T06:32:43;9.00;;;4.03;;
25213;SDS011;13160;51.834;4.706;2023-08-06T06:35:12;10.02;;;3.53;;
25213;SDS011;13160;51.834;4.706;2023-08-06T06:37:40;12.30;;;3.92;;
25213;SDS011;13160;51.834;4.706;2023-08-06T06:40:09;8.43;;;3.28;;
25213;SDS011;13160;51.834;4.706;2023-08-06T06:42:38;8.65;;;3.72;;
25213;SDS011;13160;51.834;4.706;2023-08-06T06:45:07;8.32;;;3.35;;
25213;SDS011;13160;51.834;4.706;2023-08-06T06:47:50;8.52;;;3.50;;
25213;SDS011;13160;51.834;4.706;2023-08-06T06:50:21;10.35;;;2.55;;
25213;SDS011;13160;51.834;4.706;2023-08-06T06:52:50;7.85;;;3.10;;
25213;SDS011;13160;51.834;4.706;2023-08-06T06:55:20;8.38;;;2.90;;
25213;SDS011;13160;51.834;4.706;2023-08-06T06:57:50;13.40;;;3.17;;
25213;SDS011;13160;51.834;4.706;2023-08-06T07:00:22;4.78;;;2.60;;
25213;SDS011;13160;51.834;4.706;2023-08-06T07:02:50;9.95;;;3.15;;
25213;SDS011;13160;51.834;4.706;2023-08-06T07:05:19;8.13;;;2.70;;
25213;SDS011;13160;51.834;4.706;2023-08-06T07:07:48;9.48;;;2.78;;
25213;SDS011;13160;51.834;4.706;2023-08-06T07:10:16;7.65;;;2.30;;
25213;SDS011;13160;51.834;4.706;2023-08-06T07:12:44;10.02;;;2.08;;
25213;SDS011;13160;51.834;4.706;2023-08-06T07:15:13;8.95;;;2.42;;
25213;SDS011;13160;51.834;4.706;2023-08-06T07:17:47;9.38;;;2.05;;
25213;SDS011;13160;51.834;4.706;2023-08-06T07:20:16;5.18;;;1.90;;
25213;SDS011;13160;51.834;4.706;2023-08-06T07:22:45;7.93;;;2.00;;
25213;SDS011;13160;51.834;4.706;2023-08-06T07:25:13;5.65;;;2.05;;
25213;SDS011;13160;51.834;4.706;2023-08-06T07:27:41;5.68;;;2.10;;
25213;SDS011;13160;51.834;4.706;2023-08-06T07:30:10;7.18;;;2.42;;
25213;SDS011;13160;51.834;4.706;2023-08-06T07:32:41;7.72;;;2.00;;
25213;SDS011;13160;51.834;4.706;2023-08-06T07:35:13;5.85;;;2.40;;
25213;SDS011;13160;51.834;4.706;2023-08-06T07:37:42;8.07;;;2.40;;
25213;SDS011;13160;51.834;4.706;2023-08-06T07:40:10;10.15;;;3.13;;
25213;SDS011;13160;51.834;4.706;2023-08-06T07:42:40;5.75;;;2.50;;
25213;SDS011;13160;51.834;4.706;2023-08-06T07:45:09;11.95;;;2.80;;
25213;SDS011;13160;51.834;4.706;2023-08-06T07:47:38;10.93;;;2.47;;
25213;SDS011;13160;51.834;4.706;2023-08-06T07:50:08;9.25;;;3.22;;
25213;SDS011;13160;51.834;4.706;2023-08-06T07:52:37;8.13;;;2.45;;
25213;SDS011;13160;51.834;4.706;2023-08-06T07:55:06;6.82;;;2.70;;
25213;SDS011;13160;51.834;4.706;2023-08-06T07:57:37;6.78;;;2.45;;
25213;SDS011;13160;51.834;4.706;2023-08-06T08:00:06;6.82;;;2.60;;
25213;SDS011;13160;51.834;4.706;2023-08-06T08:02:41;8.90;;;2.75;;
25213;SDS011;13160;51.834;4.706;2023-08-06T08:05:11;7.90;;;2.72;;
25213;SDS011;13160;51.834;4.706;2023-08-06T08:07:39;6.82;;;2.50;;
25213;SDS011;13160;51.834;4.706;2023-08-06T08:10:08;9.18;;;2.42;;
25213;SDS011;13160;51.834;4.706;2023-08-06T08:12:39;9.07;;;2.55;;
25213;SDS011;13160;51.834;4.706;2023-08-06T08:15:11;7.63;;;2.60;;
25213;SDS011;13160;51.834;4.706;2023-08-06T08:17:39;7.72;;;2.50;;
25213;SDS011;13160;51.834;4.706;2023-08-06T08:20:19;5.88;;;2.38;;
25213;SDS011;13160;51.834;4.706;2023-08-06T08:22:48;8.50;;;2.90;;
25213;SDS011;13160;51.834;4.706;2023-08-06T08:25:16;7.30;;;2.38;;
25213;SDS011;13160;51.834;4.706;2023-08-06T08:27:45;12.20;;;2.90;;
25213;SDS011;13160;51.834;4.706;2023-08-06T08:30:16;6.90;;;2.45;;
25213;SDS011;13160;51.834;4.706;2023-08-06T08:32:44;6.40;;;2.17;;
25213;SDS011;13160;51.834;4.706;2023-08-06T08:35:16;8.52;;;2.40;;
25213;SDS011;13160;51.834;4.706;2023-08-06T08:37:48;5.65;;;2.50;;
25213;SDS011;13160;51.834;4.706;2023-08-06T08:40:17;9.07;;;2.67;;
25213;SDS011;13160;51.834;4.706;2023-08-06T08:42:46;9.88;;;2.85;;
25213;SDS011;13160;51.834;4.706;2023-08-06T08:45:15;9.65;;;2.70;;
25213;SDS011;13160;51.834;4.706;2023-08-06T08:47:48;6.43;;;2.75;;
25213;SDS011;13160;51.834;4.706;2023-08-06T08:50:20;5.65;;;2.60;;
25213;SDS011;13160;51.834;4.706;2023-08-06T08:52:51;9.60;;;2.50;;
25213;SDS011;13160;51.834;4.706;2023-08-06T08:55:26;9.70;;;2.42;;
25213;SDS011;13160;51.834;4.706;2023-08-06T08:57:58;4.63;;;2.20;;
25213;SDS011;13160;51.834;4.706;2023-08-06T09:00:29;6.10;;;2.58;;
25213;SDS011;13160;51.834;4.706;2023-08-06T09:02:58;6.13;;;2.25;;
25213;SDS011;13160;51.834;4.706;2023-08-06T09:05:28;4.93;;;2.30;;
25213;SDS011;13160;51.834;4.706;2023-08-06T09:08:00;7.55;;;2.47;;
25213;SDS011;13160;51.834;4.706;2023-08-06T09:10:32;4.90;;;2.30;;
25213;SDS011;13160;51.834;4.706;2023-08-06T09:13:02;5.75;;;2.05;;
25213;SDS011;13160;51.834;4.706;2023-08-06T09:15:30;5.30;;;2.00;;
25213;SDS011;13160;51.834;4.706;2023-08-06T09:18:00;5.22;;;2.10;;
25213;SDS011;13160;51.834;4.706;2023-08-06T09:20:37;6.28;;;2.38;;
25213;SDS011;13160;51.834;4.706;2023-08-06T09:23:10;6.93;;;2.10;;
25213;SDS011;13160;51.834;4.706;2023-08-06T09:25:38;7.00;;;2.47;;
25213;SDS011;13160;51.834;4.706;2023-08-06T09:28:07;5.70;;;2.28;;
25213;SDS011;13160;51.834;4.706;2023-08-06T09:30:36;5.60;;;2.55;;
25213;SDS011;13160;51.834;4.706;2023-08-06T09:33:07;5.65;;;2.22;;
25213;SDS011;13160;51.834;4.706;2023-08-06T09:35:39;5.57;;;2.05;;
25213;SDS011;13160;51.834;4.706;2023-08-06T09:38:08;4.38;;;2.08;;
25213;SDS011;13160;51.834;4.706;2023-08-06T09:40:39;6.68;;;1.83;;
25213;SDS011;13160;51.834;4.706;2023-08-06T09:43:07;6.25;;;2.17;;
25213;SDS011;13160;51.834;4.706;2023-08-06T09:45:37;5.82;;;2.10;;
25213;SDS011;13160;51.834;4.706;2023-08-06T09:48:06;8.23;;;2.25;;
25213;SDS011;13160;51.834;4.706;2023-08-06T09:50:38;4.82;;;1.77;;
25213;SDS011;13160;51.834;4.706;2023-08-06T09:53:07;6.32;;;1.83;;
25213;SDS011;13160;51.834;4.706;2023-08-06T09:55:38;6.00;;;2.05;;
25213;SDS011;13160;51.834;4.706;2023-08-06T09:58:07;3.70;;;1.85;;
25213;SDS011;13160;51.834;4.706;2023-08-06T10:00:36;6.55;;;2.15;;
25213;SDS011;13160;51.834;4.706;2023-08-06T10:03:05;3.42;;;1.75;;
25213;SDS011;13160;51.834;4.706;2023-08-06T10:05:36;4.68;;;1.90;;
25213;SDS011;13160;51.834;4.706;2023-08-06T10:08:06;3.85;;;1.60;;
25213;SDS011;13160;51.834;4.706;2023-08-06T10:10:38;4.05;;;2.15;;
25213;SDS011;13160;51.834;4.706;2023-08-06T10:13:09;3.17;;;1.52;;
25213;SDS011;13160;51.834;4.706;2023-08-06T10:15:42;3.75;;;1.60;;
25213;SDS011;13160;51.834;4.706;2023-08-06T10:18:11;4.75;;;1.60;;
25213;SDS011;13160;51.834;4.706;2023-08-06T10:20:44;7.00;;;1.80;;
25213;SDS011;13160;51.834;4.706;2023-08-06T10:23:13;2.92;;;1.40;;
25213;SDS011;13160;51.834;4.706;2023-08-06T10:25:43;2.95;;;1.27;;
25213;SDS011;13160;51.834;4.706;2023-08-06T10:28:11;2.92;;;1.38;;
25213;SDS011;13160;51.834;4.706;2023-08-06T10:30:42;3.63;;;1.40;;
25213;SDS011;13160;51.834;4.706;2023-08-06T10:33:12;5.07;;;1.60;;
25213;SDS011;13160;51.834;4.706;2023-08-06T10:35:44;4.10;;;1.35;;
25213;SDS011;13160;51.834;4.706;2023-08-06T10:38:16;4.25;;;1.30;;
25213;SDS011;13160;51.834;4.706;2023-08-06T10:40:52;3.28;;;1.45;;
25213;SDS011;13160;51.834;4.706;2023-08-06T10:43:30;4.30;;;1.33;;
25213;SDS011;13160;51.834;4.706;2023-08-06T10:46:00;4.57;;;1.38;;
25213;SDS011;13160;51.834;4.706;2023-08-06T10:48:31;3.55;;;1.30;;
25213;SDS011;13160;51.834;4.706;2023-08-06T10:51:03;6.80;;;1.60;;
25213;SDS011;13160;51.834;4.706;2023-08-06T10:53:42;4.03;;;1.30;;
25213;SDS011;13160;51.834;4.706;2023-08-06T10:56:14;3.58;;;1.70;;
25213;SDS011;13160;51.834;4.706;2023-08-06T10:58:43;3.38;;;1.10;;
25213;SDS011;13160;51.834;4.706;2023-08-06T11:01:13;4.03;;;1.55;;
25213;SDS011;13160;51.834;4.706;2023-08-06T11:03:42;3.28;;;1.25;;
25213;SDS011;13160;51.834;4.706;2023-08-06T11:06:16;5.43;;;1.27;;
25213;SDS011;13160;51.834;4.706;2023-08-06T11:08:49;3.28;;;1.42;;
25213;SDS011;13160;51.834;4.706;2023-08-06T11:11:21;3.15;;;1.20;;
25213;SDS011;13160;51.834;4.706;2023-08-06T11:13:51;5.68;;;1.23;;
25213;SDS011;13160;51.834;4.706;2023-08-06T11:16:20;1.95;;;1.00;;
25213;SDS011;13160;51.834;4.706;2023-08-06T11:18:51;3.08;;;1.00;;
25213;SDS011;13160;51.834;4.706;2023-08-06T11:21:21;5.22;;;1.30;;
25213;SDS011;13160;51.834;4.706;2023-08-06T11:23:51;2.70;;;1.30;;
25213;SDS011;13160;51.834;4.706;2023-08-06T11:26:22;3.28;;;1.55;;
25213;SDS011;13160;51.834;4.706;2023-08-06T11:28:50;4.45;;;1.60;;
25213;SDS011;13160;51.834;4.706;2023-08-06T11:31:19;3.42;;;1.42;;
25213;SDS011;13160;51.834;4.706;2023-08-06T11:33:49;4.38;;;1.58;;
25213;SDS011;13160;51.834;4.706;2023-08-06T11:36:28;3.78;;;1.40;;
25213;SDS011;13160;51.834;4.706;2023-08-06T11:38:57;3.33;;;1.20;;
25213;SDS011;13160;51.834;4.706;2023-08-06T11:41:29;3.60;;;1.40;;
25213;SDS011;13160;51.834;4.706;2023-08-06T11:43:58;3.90;;;1.40;;
25213;SDS011;13160;51.834;4.706;2023-08-06T11:46:26;2.72;;;1.13;;
25213;SDS011;13160;51.834;4.706;2023-08-06T11:48:56;4.70;;;1.42;;
25213;SDS011;13160;51.834;4.706;2023-08-06T11:51:32;4.32;;;1.30;;
25213;SDS011;13160;51.834;4.706;2023-08-06T11:54:00;4.43;;;1.40;;
25213;SDS011;13160;51.834;4.706;2023-08-06T11:56:30;2.63;;;1.17;;
25213;SDS011;13160;51.834;4.706;2023-08-06T11:58:59;5.75;;;1.42;;
25213;SDS011;13160;51.834;4.706;2023-08-06T12:01:28;3.88;;;1.30;;
25213;SDS011;13160;51.834;4.706;2023-08-06T12:03:58;3.42;;;1.50;;
25213;SDS011;13160;51.834;4.706;2023-08-06T12:06:27;6.57;;;1.58;;
25213;SDS011;13160;51.834;4.706;2023-08-06T12:08:55;3.92;;;1.40;;
25213;SDS011;13160;51.834;4.706;2023-08-06T12:11:23;4.90;;;1.40;;
25213;SDS011;13160;51.834;4.706;2023-08-06T12:13:54;3.08;;;1.20;;
25213;SDS011;13160;51.834;4.706;2023-08-06T12:16:23;6.88;;;2.45;;
25213;SDS011;13160;51.834;4.706;2023-08-06T12:18:51;4.65;;;1.70;;
25213;SDS011;13160;51.834;4.706;2023-08-06T12:21:20;3.05;;;1.30;;
25213;SDS011;13160;51.834;4.706;2023-08-06T12:23:49;4.20;;;1.58;;
25213;SDS011;13160;51.834;4.706;2023-08-06T12:26:17;4.63;;;1.73;;
25213;SDS011;13160;51.834;4.706;2023-08-06T12:28:46;6.82;;;1.83;;
25213;SDS011;13160;51.834;4.706;2023-08-06T12:31:17;7.03;;;1.70;;
25213;SDS011;13160;51.834;4.706;2023-08-06T12:33:45;4.18;;;1.80;;
25213;SDS011;13160;51.834;4.706;2023-08-06T12:36:13;5.00;;;1.48;;
25213;SDS011;13160;51.834;4.706;2023-08-06T12:38:41;3.92;;;1.88;;
25213;SDS011;13160;51.834;4.706;2023-08-06T12:41:11;3.10;;;1.23;;
25213;SDS011;13160;51.834;4.706;2023-08-06T12:43:39;3.08;;;1.40;;
25213;SDS011;13160;51.834;4.706;2023-08-06T12:46:07;4.30;;;1.30;;
25213;SDS011;13160;51.834;4.706;2023-08-06T12:48:38;2.85;;;1.27;;
25213;SDS011;13160;51.834;4.706;2023-08-06T12:51:06;4.32;;;1.30;;
25213;SDS011;13160;51.834;4.706;2023-08-06T12:53:34;3.53;;;1.17;;
25213;SDS011;13160;51.834;4.706;2023-08-06T12:56:03;5.47;;;1.10;;
25213;SDS011;13160;51.834;4.706;2023-08-06T12:58:31;2.63;;;0.90;;
25213;SDS011;13160;51.834;4.706;2023-08-06T13:01:00;4.10;;;1.27;;
25213;SDS011;13160;51.834;4.706;2023-08-06T13:03:28;3.55;;;1.35;;
25213;SDS011;13160;51.834;4.706;2023-08-06T13:06:00;4.97;;;1.20;;
25213;SDS011;13160;51.834;4.706;2023-08-06T13:08:28;3.72;;;1.20;;
25213;SDS011;13160;51.834;4.706;2023-08-06T13:10:57;2.70;;;0.95;;
25213;SDS011;13160;51.834;4.706;2023-08-06T13:13:25;3.55;;;1.15;;
25213;SDS011;13160;51.834;4.706;2023-08-06T13:15:53;2.85;;;0.90;;
25213;SDS011;13160;51.834;4.706;2023-08-06T13:18:22;4.15;;;1.25;;
25213;SDS011;13160;51.834;4.706;2023-08-06T13:20:52;5.57;;;1.17;;
25213;SDS011;13160;51.834;4.706;2023-08-06T13:23:23;3.58;;;1.00;;
25213;SDS011;13160;51.834;4.706;2023-08-06T13:25:51;3.58;;;1.00;;
25213;SDS011;13160;51.834;4.706;2023-08-06T13:28:21;3.47;;;1.20;;
25213;SDS011;13160;51.834;4.706;2023-08-06T13:30:49;2.53;;;0.82;;
25213;SDS011;13160;51.834;4.706;2023-08-06T13:33:18;3.42;;;0.80;;
25213;SDS011;13160;51.834;4.706;2023-08-06T13:35:48;1.70;;;0.60;;
25213;SDS011;13160;51.834;4.706;2023-08-06T13:38:17;3.55;;;0.73;;
25213;SDS011;13160;51.834;4.706;2023-08-06T13:40:47;1.55;;;0.68;;
25213;SDS011;13160;51.834;4.706;2023-08-06T13:43:16;1.42;;;0.50;;
25213;SDS011;13160;51.834;4.706;2023-08-06T13:45:47;1.75;;;0.70;;
25213;SDS011;13160;51.834;4.706;2023-08-06T13:48:15;1.85;;;0.60;;
25213;SDS011;13160;51.834;4.706;2023-08-06T13:50:47;2.97;;;0.80;;
25213;SDS011;13160;51.834;4.706;2023-08-06T13:53:16;3.90;;;1.08;;
25213;SDS011;13160;51.834;4.706;2023-08-06T13:55:44;2.67;;;0.80;;
25213;SDS011;13160;51.834;4.706;2023-08-06T13:58:14;4.75;;;1.17;;
25213;SDS011;13160;51.834;4.706;2023-08-06T14:00:42;7.15;;;1.17;;
25213;SDS011;13160;51.834;4.706;2023-08-06T14:03:11;5.20;;;1.15;;
25213;SDS011;13160;51.834;4.706;2023-08-06T14:05:39;10.02;;;1.52;;
25213;SDS011;13160;51.834;4.706;2023-08-06T14:08:09;9.30;;;1.70;;
25213;SDS011;13160;51.834;4.706;2023-08-06T14:10:37;6.20;;;1.25;;
25213;SDS011;13160;51.834;4.706;2023-08-06T14:13:08;7.35;;;1.50;;
25213;SDS011;13160;51.834;4.706;2023-08-06T14:15:36;8.07;;;1.77;;
25213;SDS011;13160;51.834;4.706;2023-08-06T14:18:06;8.13;;;1.20;;
25213;SDS011;13160;51.834;4.706;2023-08-06T14:20:35;7.38;;;1.23;;
25213;SDS011;13160;51.834;4.706;2023-08-06T14:23:04;5.03;;;1.00;;
25213;SDS011;13160;51.834;4.706;2023-08-06T14:25:32;4.57;;;1.10;;
25213;SDS011;13160;51.834;4.706;2023-08-06T14:28:01;4.45;;;0.82;;
25213;SDS011;13160;51.834;4.706;2023-08-06T14:30:35;4.45;;;0.93;;
25213;SDS011;13160;51.834;4.706;2023-08-06T14:33:04;6.10;;;0.90;;
25213;SDS011;13160;51.834;4.706;2023-08-06T14:35:51;4.45;;;0.88;;
25213;SDS011;13160;51.834;4.706;2023-08-06T14:38:19;4.53;;;0.88;;
25213;SDS011;13160;51.834;4.706;2023-08-06T14:40:48;4.32;;;1.17;;
25213;SDS011;13160;51.834;4.706;2023-08-06T14:43:16;4.30;;;1.00;;
25213;SDS011;13160;51.834;4.706;2023-08-06T14:45:46;5.63;;;1.27;;
25213;SDS011;13160;51.834;4.706;2023-08-06T14:48:14;3.38;;;0.70;;
25213;SDS011;13160;51.834;4.706;2023-08-06T14:50:42;5.05;;;0.88;;
25213;SDS011;13160;51.834;4.706;2023-08-06T14:53:11;6.03;;;1.10;;
25213;SDS011;13160;51.834;4.706;2023-08-06T14:55:39;4.07;;;1.00;;
25213;SDS011;13160;51.834;4.706;2023-08-06T14:58:08;4.90;;;1.15;;
25213;SDS011;13160;51.834;4.706;2023-08-06T15:00:37;7.90;;;1.40;;